Time;durP1;ratioP1;P1;durP2;ratioP2;P2;SDS_P1;SDS_P2;PMS_P1;PMS_P2;Temp;Humidity;BMP_temperature;BMP_pressure;BME280_temperature;BME280_humidity;BME280_pressure;Samples;Min_cycle;Max_cycle;Signal;HPM_P1;HPM_P2
2021/04/07 00:00:18;;;;;;;14.30;2.38;;;2.20;99.90;;;;;;5081718;28;20036;-73
2021/04/07 00:02:44;;;;;;;13.98;1.55;;;2.10;99.90;;;;;;5076542;28;20458;-73
2021/04/07 00:05:13;;;;;;;15.15;2.10;;;2.10;99.90;;;;;;5076837;28;20040;-73
2021/04/07 00:07:39;;;;;;;13.35;2.05;;;2.00;99.90;;;;;;5070731;28;20567;-73
2021/04/07 00:10:09;;;;;;;11.45;2.13;;;1.90;99.90;;;;;;5072230;28;20412;-73
2021/04/07 00:12:34;;;;;;;16.17;2.25;;;1.90;99.90;;;;;;5075111;28;20021;-72
2021/04/07 00:15:08;;;;;;;21.40;2.63;;;1.90;99.90;;;;;;5075366;28;20024;-73
2021/04/07 00:17:33;;;;;;;21.95;2.17;;;1.90;99.90;;;;;;5075958;28;20021;-72
2021/04/07 00:19:59;;;;;;;19.27;2.85;;;1.90;99.90;;;;;;5079278;28;20115;-72
2021/04/07 00:22:25;;;;;;;16.05;2.25;;;2.00;99.90;;;;;;5079761;28;20031;-75
2021/04/07 00:24:51;;;;;;;10.25;1.85;;;2.00;99.90;;;;;;5083259;28;20032;-74
2021/04/07 00:27:18;;;;;;;13.63;2.00;;;2.10;99.90;;;;;;5079067;28;20037;-74
2021/04/07 00:29:44;;;;;;;13.68;1.77;;;2.10;99.90;;;;;;5074054;28;20017;-73
2021/04/07 00:32:10;;;;;;;10.93;2.50;;;2.20;99.90;;;;;;5068714;28;20031;-72
2021/04/07 00:34:35;;;;;;;18.15;2.70;;;2.20;99.90;;;;;;5071758;28;20029;-73
2021/04/07 00:37:01;;;;;;;16.70;1.88;;;2.20;99.90;;;;;;5073010;28;20033;-73
2021/04/07 00:39:28;;;;;;;11.75;2.20;;;2.20;99.90;;;;;;5073765;28;20032;-73
2021/04/07 00:42:02;;;;;;;19.33;2.10;;;2.10;99.90;;;;;;5073239;28;20024;-71
2021/04/07 00:44:28;;;;;;;10.23;2.03;;;2.20;99.90;;;;;;5074649;28;20111;-74
2021/04/07 00:46:53;;;;;;;14.30;2.05;;;2.40;99.90;;;;;;5074845;28;20095;-73
2021/04/07 00:49:19;;;;;;;14.18;2.35;;;2.50;99.90;;;;;;5074818;28;20024;-71
2021/04/07 00:51:45;;;;;;;16.77;2.10;;;2.50;99.90;;;;;;5058281;28;576118;-74
2021/04/07 00:54:11;;;;;;;7.18;1.60;;;2.50;99.90;;;;;;5075336;28;20037;-73
2021/04/07 00:56:37;;;;;;;14.05;1.65;;;2.50;99.90;;;;;;5079822;28;20025;-73
2021/04/07 00:59:03;;;;;;;13.40;1.65;;;2.50;99.90;;;;;;5080484;28;20035;-73
2021/04/07 01:01:30;;;;;;;13.00;1.83;;;2.50;99.90;;;;;;5077967;28;20405;-72
2021/04/07 01:03:55;;;;;;;14.43;1.85;;;2.40;99.90;;;;;;5072732;28;20031;-71
2021/04/07 01:06:21;;;;;;;11.75;3.00;;;2.40;99.90;;;;;;5067353;28;20109;-72
2021/04/07 01:08:47;;;;;;;12.30;1.83;;;2.70;99.90;;;;;;5068834;28;20031;-74
2021/04/07 01:11:12;;;;;;;16.73;1.75;;;2.60;99.90;;;;;;5083825;28;20981;-72
2021/04/07 01:13:38;;;;;;;8.70;1.23;;;2.70;99.90;;;;;;5082682;28;20234;-73
2021/04/07 01:16:04;;;;;;;12.98;1.58;;;2.70;99.90;;;;;;5075788;28;20036;-73
2021/04/07 01:18:33;;;;;;;11.25;1.73;;;2.70;99.90;;;;;;5070166;28;20029;-73
2021/04/07 01:21:00;;;;;;;20.27;2.08;;;2.60;99.90;;;;;;5083632;28;20085;-73
2021/04/07 01:23:28;;;;;;;17.85;1.90;;;2.60;99.90;;;;;;5082786;28;20051;-73
2021/04/07 01:25:54;;;;;;;8.65;1.98;;;2.60;99.90;;;;;;5075960;28;20059;-72
2021/04/07 01:28:20;;;;;;;14.77;2.15;;;2.60;99.90;;;;;;5075608;28;20036;-71
2021/04/07 01:30:47;;;;;;;15.20;1.77;;;2.60;99.90;;;;;;5071045;28;20024;-71
2021/04/07 01:33:23;;;;;;;9.30;1.75;;;2.50;99.90;;;;;;5072103;28;20084;-73
2021/04/07 01:35:54;;;;;;;8.60;1.25;;;2.30;99.90;;;;;;5071968;28;20039;-72
2021/04/07 01:38:20;;;;;;;13.95;1.38;;;2.10;99.90;;;;;;5076136;28;20078;-71
2021/04/07 01:40:46;;;;;;;11.60;1.60;;;2.10;99.90;;;;;;5080211;28;20016;-72
2021/04/07 01:43:16;;;;;;;10.75;2.15;;;2.10;99.90;;;;;;5079136;28;20029;-71
2021/04/07 01:45:43;;;;;;;4.72;0.93;;;2.20;99.90;;;;;;5076070;28;20051;-70
2021/04/07 01:48:09;;;;;;;13.55;1.75;;;2.20;99.90;;;;;;5068040;28;20039;-71
2021/04/07 01:50:36;;;;;;;9.30;1.58;;;2.20;99.90;;;;;;5078391;28;20025;-73
2021/04/07 01:53:02;;;;;;;9.50;1.67;;;2.20;99.90;;;;;;5076913;28;20031;-72
2021/04/07 01:55:28;;;;;;;16.98;2.28;;;2.20;99.90;;;;;;5075022;28;20020;-71
2021/04/07 01:57:54;;;;;;;14.15;1.75;;;2.10;99.90;;;;;;5076074;28;20108;-69
2021/04/07 02:00:21;;;;;;;12.07;2.85;;;2.20;99.90;;;;;;5075300;28;20030;-71
2021/04/07 02:02:47;;;;;;;16.95;2.03;;;2.20;99.90;;;;;;5075854;28;20021;-72
2021/04/07 02:05:15;;;;;;;13.13;2.17;;;2.20;99.90;;;;;;5085796;28;20001;-72
2021/04/07 02:07:40;;;;;;;20.83;1.80;;;2.20;99.90;;;;;;5073441;28;20100;-73
2021/04/07 02:10:08;;;;;;;11.82;1.42;;;2.20;99.90;;;;;;5065877;28;20048;-71
2021/04/07 02:12:34;;;;;;;10.68;1.60;;;2.20;99.90;;;;;;5069067;28;20061;-72
2021/04/07 02:15:00;;;;;;;11.77;1.60;;;2.20;99.90;;;;;;5074187;28;20064;-71
2021/04/07 02:17:25;;;;;;;11.73;1.77;;;2.20;99.90;;;;;;5076209;28;20020;-71
2021/04/07 02:19:51;;;;;;;18.40;1.63;;;2.20;99.90;;;;;;5077068;28;20033;-72
2021/04/07 02:22:20;;;;;;;8.90;1.50;;;2.20;99.90;;;;;;5079188;28;20016;-72
2021/04/07 02:24:49;;;;;;;11.32;1.67;;;2.20;99.90;;;;;;5090682;28;20086;-72
2021/04/07 02:27:20;;;;;;;14.57;2.45;;;2.20;99.90;;;;;;5097828;28;20016;-72
2021/04/07 02:29:51;;;;;;;19.90;1.75;;;2.20;99.90;;;;;;5094711;28;20344;-73
2021/04/07 02:32:19;;;;;;;14.02;2.20;;;2.20;99.90;;;;;;5096364;28;20032;-73
2021/04/07 02:34:45;;;;;;;9.15;1.95;;;2.20;99.90;;;;;;5095495;28;20033;-72
2021/04/07 02:37:12;;;;;;;16.15;2.30;;;2.30;99.90;;;;;;5094446;28;20031;-72
2021/04/07 02:39:41;;;;;;;16.35;1.75;;;2.30;99.90;;;;;;5096685;28;20028;-73
2021/04/07 02:42:07;;;;;;;12.38;1.83;;;2.30;99.90;;;;;;5086845;28;20021;-72
2021/04/07 02:44:35;;;;;;;15.38;1.77;;;2.40;99.90;;;;;;5097129;28;20020;-73
2021/04/07 02:47:03;;;;;;;13.60;1.98;;;2.40;99.90;;;;;;5095958;28;20017;-71
2021/04/07 02:49:29;;;;;;;14.10;1.90;;;2.50;99.90;;;;;;5094698;28;20012;-71
2021/04/07 02:51:55;;;;;;;22.02;2.38;;;2.60;99.90;;;;;;5096457;28;20105;-71
2021/04/07 02:54:21;;;;;;;20.23;2.97;;;2.70;99.90;;;;;;5097436;28;20083;-71
2021/04/07 02:56:48;;;;;;;18.63;2.58;;;2.80;99.90;;;;;;5097024;28;20029;-71
2021/04/07 02:59:16;;;;;;;15.10;2.30;;;2.90;99.90;;;;;;5096891;28;20051;-71
2021/04/07 03:01:42;;;;;;;13.55;2.63;;;3.00;99.90;;;;;;5096510;28;20027;-70
2021/04/07 03:04:13;;;;;;;13.40;2.70;;;3.10;99.90;;;;;;5096382;28;20013;-70
2021/04/07 03:06:39;;;;;;;11.90;1.80;;;3.30;99.90;;;;;;5096503;28;20040;-72
2021/04/07 03:09:05;;;;;;;13.32;2.00;;;3.20;99.90;;;;;;5097101;28;20020;-70
2021/04/07 03:11:31;;;;;;;11.25;1.67;;;2.90;99.90;;;;;;5096939;28;20032;-70
2021/04/07 03:13:59;;;;;;;15.25;1.88;;;2.60;99.90;;;;;;5096080;28;20103;-71
2021/04/07 03:16:28;;;;;;;9.98;1.90;;;2.50;99.90;;;;;;5093955;28;20013;-75
2021/04/07 03:18:54;;;;;;;21.08;2.38;;;2.50;99.90;;;;;;5093364;28;20504;-73
2021/04/07 03:21:19;;;;;;;25.08;2.38;;;2.50;99.90;;;;;;5095243;28;20028;-72
2021/04/07 03:23:46;;;;;;;27.48;3.22;;;2.60;99.90;;;;;;5092646;28;20025;-71
2021/04/07 03:26:12;;;;;;;23.92;2.80;;;2.60;99.90;;;;;;5094786;28;20354;-71
2021/04/07 03:28:38;;;;;;;18.83;2.88;;;2.60;99.90;;;;;;5095330;28;20032;-74
2021/04/07 03:31:07;;;;;;;14.15;2.60;;;2.50;99.90;;;;;;5095310;28;20051;-72
2021/04/07 03:33:35;;;;;;;19.95;3.17;;;2.40;99.90;;;;;;5092121;28;20084;-73
2021/04/07 03:36:02;;;;;;;19.50;3.22;;;2.40;99.90;;;;;;5095852;28;20028;-72
2021/04/07 03:38:29;;;;;;;15.30;4.20;;;2.30;99.90;;;;;;5095670;28;20301;-73
2021/04/07 03:40:55;;;;;;;25.80;5.95;;;2.20;99.90;;;;;;5091200;28;20020;-73
2021/04/07 03:43:22;;;;;;;24.20;4.72;;;2.10;99.90;;;;;;5090916;28;20035;-75
2021/04/07 03:45:51;;;;;;;19.70;5.57;;;2.10;99.90;;;;;;5095160;28;20041;-74
2021/04/07 03:48:19;;;;;;;25.92;5.65;;;2.00;99.90;;;;;;5093486;28;20024;-73
2021/04/07 03:50:51;;;;;;;31.90;5.35;;;2.00;99.90;;;;;;5093846;28;20027;-72
2021/04/07 03:53:18;;;;;;;19.42;4.80;;;2.00;99.90;;;;;;5095164;28;20040;-75
2021/04/07 03:55:49;;;;;;;19.63;4.18;;;1.80;99.90;;;;;;5093200;28;20032;-74
2021/04/07 03:58:16;;;;;;;19.17;3.75;;;1.80;99.90;;;;;;5085423;28;20021;-74
2021/04/07 04:00:42;;;;;;;14.93;3.60;;;1.80;99.90;;;;;;5093400;28;20005;-72
2021/04/07 04:03:09;;;;;;;12.52;2.70;;;1.90;99.90;;;;;;5093570;28;20121;-75
2021/04/07 04:05:36;;;;;;;11.50;2.55;;;1.80;99.90;;;;;;5092094;28;20032;-75
2021/04/07 04:08:02;;;;;;;16.00;3.65;;;1.80;99.90;;;;;;5091076;28;20035;-74
2021/04/07 04:10:28;;;;;;;14.25;2.72;;;1.90;99.90;;;;;;5089750;28;20047;-74
2021/04/07 04:12:55;;;;;;;11.52;2.88;;;1.80;99.90;;;;;;5085610;28;20084;-74
2021/04/07 04:15:21;;;;;;;17.92;3.22;;;1.80;99.90;;;;;;5083866;28;20017;-72
2021/04/07 04:17:47;;;;;;;20.30;3.25;;;1.80;99.90;;;;;;5088375;28;20043;-73
2021/04/07 04:20:15;;;;;;;15.00;3.47;;;1.80;99.90;;;;;;5079464;28;20028;-72
2021/04/07 04:22:41;;;;;;;17.60;3.80;;;1.70;99.90;;;;;;5080116;28;20020;-71
2021/04/07 04:25:12;;;;;;;11.43;3.45;;;1.70;99.90;;;;;;5082308;28;20051;-69
2021/04/07 04:27:39;;;;;;;13.77;4.50;;;1.70;99.90;;;;;;5072100;28;20051;-71
2021/04/07 04:30:10;;;;;;;19.98;4.13;;;1.70;99.90;;;;;;5076965;28;20055;-71
2021/04/07 04:32:36;;;;;;;21.65;4.20;;;1.70;99.90;;;;;;5084040;28;20025;-73
2021/04/07 04:35:02;;;;;;;15.07;4.38;;;1.70;99.90;;;;;;5080406;28;20499;-73
2021/04/07 04:37:28;;;;;;;21.55;4.30;;;1.70;99.90;;;;;;5078352;28;20573;-73
2021/04/07 04:39:55;;;;;;;20.27;3.13;;;1.80;99.90;;;;;;5074663;28;20028;-72
2021/04/07 04:42:21;;;;;;;16.15;2.88;;;1.80;99.90;;;;;;5076410;28;20563;-72
2021/04/07 04:44:46;;;;;;;25.83;3.15;;;1.80;99.90;;;;;;5078826;28;20111;-72
2021/04/07 04:47:12;;;;;;;19.73;3.33;;;1.80;99.90;;;;;;5083333;28;20028;-72
2021/04/07 04:49:38;;;;;;;21.10;4.72;;;1.90;99.90;;;;;;5086159;28;20016;-73
2021/04/07 04:52:04;;;;;;;21.60;4.78;;;1.90;99.90;;;;;;5086397;28;20044;-73
2021/04/07 04:54:29;;;;;;;26.17;5.25;;;1.90;99.90;;;;;;5087759;28;20089;-72
2021/04/07 04:56:55;;;;;;;28.98;4.97;;;1.90;99.90;;;;;;5082458;28;20017;-72
2021/04/07 04:59:21;;;;;;;24.55;4.90;;;1.80;99.90;;;;;;5077490;28;20027;-72
2021/04/07 05:01:47;;;;;;;26.80;5.32;;;1.80;99.90;;;;;;5067404;28;20040;-73
2021/04/07 05:04:13;;;;;;;16.80;4.65;;;1.80;99.90;;;;;;5071873;28;20128;-72
2021/04/07 05:06:38;;;;;;;23.23;5.18;;;1.80;99.90;;;;;;5080395;28;20119;-72
2021/04/07 05:09:05;;;;;;;23.20;4.70;;;1.70;99.90;;;;;;5088897;28;20033;-72
2021/04/07 05:11:34;;;;;;;19.73;4.65;;;1.60;99.90;;;;;;5085175;28;20029;-73
2021/04/07 05:14:00;;;;;;;28.05;5.93;;;1.60;99.90;;;;;;5072743;28;20020;-75
2021/04/07 05:16:33;;;;;;;39.60;6.50;;;1.60;99.90;;;;;;5078729;28;20535;-76
2021/04/07 05:18:59;;;;;;;22.02;5.72;;;1.50;99.90;;;;;;5082838;28;20013;-73
2021/04/07 05:21:35;;;;;;;27.52;5.85;;;1.50;99.90;;;;;;5078319;28;20059;-77
2021/04/07 05:24:01;;;;;;;24.25;6.45;;;1.40;99.90;;;;;;5067331;28;20040;-71
2021/04/07 05:26:26;;;;;;;37.00;7.68;;;1.50;99.90;;;;;;5071216;28;20058;-72
2021/04/07 05:28:54;;;;;;;25.85;7.47;;;1.50;99.90;;;;;;5071516;28;20089;-75
2021/04/07 05:31:20;;;;;;;41.05;7.80;;;1.60;99.90;;;;;;5063200;28;20040;-72
2021/04/07 05:33:51;;;;;;;42.17;8.60;;;1.60;99.90;;;;;;5070338;28;20043;-72
2021/04/07 05:36:17;;;;;;;33.13;7.22;;;1.70;99.90;;;;;;5065680;28;20083;-73
2021/04/07 05:38:43;;;;;;;23.65;8.43;;;1.70;99.90;;;;;;5068440;28;20528;-72
2021/04/07 05:41:09;;;;;;;31.33;7.97;;;1.80;99.90;;;;;;5066062;28;20488;-73
2021/04/07 05:43:37;;;;;;;31.50;7.82;;;1.90;99.90;;;;;;5060538;28;20021;-73
2021/04/07 05:46:04;;;;;;;32.00;8.20;;;1.90;99.90;;;;;;5070099;28;20511;-74
2021/04/07 05:48:30;;;;;;;26.45;8.23;;;2.00;99.90;;;;;;5049977;28;20029;-72
2021/04/07 05:50:56;;;;;;;38.08;8.57;;;2.00;99.90;;;;;;5068652;28;20043;-73
2021/04/07 05:53:23;;;;;;;28.63;8.15;;;2.00;99.90;;;;;;5070381;28;20131;-74
2021/04/07 05:55:53;;;;;;;19.27;7.15;;;2.00;99.90;;;;;;5069246;28;20012;-73
2021/04/07 05:58:20;;;;;;;39.80;8.77;;;2.20;99.90;;;;;;5067975;28;20017;-71
2021/04/07 06:00:47;;;;;;;32.83;8.00;;;2.30;99.90;;;;;;5070254;28;20029;-73
2021/04/07 06:03:15;;;;;;;35.95;6.57;;;2.40;99.90;;;;;;5065808;28;20022;-73
2021/04/07 06:05:44;;;;;;;37.03;6.47;;;2.60;99.90;;;;;;5071366;28;20107;-77
2021/04/07 06:08:11;;;;;;;32.55;5.85;;;2.80;99.90;;;;;;5070335;28;20550;-72
2021/04/07 06:10:39;;;;;;;47.08;5.68;;;3.00;99.90;;;;;;5068834;28;20031;-72
2021/04/07 06:13:05;;;;;;;34.58;6.20;;;3.20;99.90;;;;;;5071178;28;20904;-76
2021/04/07 06:15:31;;;;;;;54.33;6.72;;;3.50;99.90;;;;;;5073785;28;20032;-74
2021/04/07 06:18:00;;;;;;;41.38;5.78;;;3.70;99.90;;;;;;5064438;28;20017;-73
2021/04/07 06:20:29;;;;;;;42.92;6.32;;;3.70;99.90;;;;;;5072587;28;20042;-72
2021/04/07 06:22:56;;;;;;;42.72;5.97;;;3.80;99.90;;;;;;5069666;28;20017;-73
2021/04/07 06:25:22;;;;;;;48.05;7.03;;;3.90;99.90;;;;;;5064212;28;20059;-72
2021/04/07 06:27:57;;;;;;;36.83;5.85;;;4.00;99.90;;;;;;5074863;28;20017;-72
2021/04/07 06:30:40;;;;;;;41.75;5.03;;;4.10;99.90;;;;;;5072726;28;20042;-71
2021/04/07 06:33:22;;;;;;;36.80;5.50;;;4.10;99.90;;;;;;5070155;28;22033;-73
2021/04/07 06:35:58;;;;;;;35.15;4.85;;;4.20;99.90;;;;;;5071310;28;20074;-71
2021/04/07 06:38:25;;;;;;;34.55;6.05;;;4.20;99.90;;;;;;5071916;28;20149;-73
2021/04/07 06:40:53;;;;;;;45.83;5.20;;;4.20;99.90;;;;;;5071194;28;20024;-74
2021/04/07 06:43:21;;;;;;;37.00;7.38;;;4.20;99.90;;;;;;5071123;28;20051;-72
2021/04/07 06:45:47;;;;;;;45.88;6.05;;;4.30;99.90;;;;;;5071689;28;20213;-72
2021/04/07 06:48:15;;;;;;;32.70;5.43;;;4.30;99.90;;;;;;5056001;28;20079;-72
2021/04/07 06:50:42;;;;;;;53.55;7.32;;;4.40;99.90;;;;;;5078151;28;20646;-72
2021/04/07 06:53:09;;;;;;;43.53;6.22;;;4.50;99.90;;;;;;5076293;28;20326;-74
2021/04/07 06:55:35;;;;;;;42.90;5.47;;;4.50;99.90;;;;;;5065620;28;20020;-73
2021/04/07 06:58:06;;;;;;;56.70;6.70;;;4.50;99.90;;;;;;5070074;28;20638;-72
2021/04/07 07:00:33;;;;;;;39.08;5.80;;;4.50;99.90;;;;;;5070018;28;20420;-72
2021/04/07 07:03:06;;;;;;;61.83;8.02;;;4.50;99.90;;;;;;5071203;28;20020;-73
2021/04/07 07:05:35;;;;;;;53.95;7.00;;;4.60;99.90;;;;;;5068109;28;20719;-70
2021/04/07 07:08:02;;;;;;;38.35;5.95;;;4.60;99.90;;;;;;5071832;28;20048;-70
2021/04/07 07:10:38;;;;;;;56.10;7.80;;;4.70;99.90;;;;;;5070075;28;20570;-70
2021/04/07 07:13:04;;;;;;;34.83;6.20;;;4.70;99.90;;;;;;5070262;28;20078;-73
2021/04/07 07:15:30;;;;;;;38.63;5.95;;;4.80;99.90;;;;;;5071111;28;20029;-73
2021/04/07 07:17:56;;;;;;;53.50;7.57;;;4.80;99.90;;;;;;5070613;28;20028;-71
2021/04/07 07:20:32;;;;;;;46.83;6.75;;;4.90;99.90;;;;;;5064601;28;20024;-72
2021/04/07 07:22:58;;;;;;;58.35;7.38;;;4.90;99.90;;;;;;5070090;28;20021;-71
2021/04/07 07:25:25;;;;;;;56.45;6.85;;;5.00;99.90;;;;;;5063268;28;20039;-72
2021/04/07 07:27:57;;;;;;;42.67;5.60;;;5.00;99.90;;;;;;5071498;28;20017;-71
2021/04/07 07:30:23;;;;;;;56.17;8.30;;;5.00;99.90;;;;;;5070438;28;20162;-73
2021/04/07 07:32:50;;;;;;;42.72;7.43;;;5.00;99.90;;;;;;5057307;28;20041;-72
2021/04/07 07:35:17;;;;;;;45.05;5.93;;;4.90;99.90;;;;;;5075480;28;20024;-71
2021/04/07 07:37:44;;;;;;;51.42;6.07;;;5.00;99.90;;;;;;5069974;28;20105;-74
2021/04/07 07:40:16;;;;;;;44.28;6.00;;;5.00;99.90;;;;;;5062487;28;20009;-71
2021/04/07 07:42:43;;;;;;;47.33;6.22;;;5.10;99.90;;;;;;5062217;28;20020;-70
2021/04/07 07:45:10;;;;;;;49.10;6.20;;;5.10;99.90;;;;;;5071200;28;20032;-72
2021/04/07 07:47:44;;;;;;;54.65;6.82;;;5.00;99.90;;;;;;5066418;28;20024;-70
2021/04/07 07:50:14;;;;;;;53.08;7.15;;;5.00;99.90;;;;;;5069816;28;20025;-70
2021/04/07 07:52:42;;;;;;;55.70;6.38;;;5.00;99.90;;;;;;5067616;28;20081;-71
2021/04/07 07:55:18;;;;;;;53.55;7.15;;;5.10;99.90;;;;;;5075103;28;20025;-73
2021/04/07 07:57:55;;;;;;;33.88;7.40;;;5.10;99.90;;;;;;5086116;28;20051;-69
2021/04/07 08:00:24;;;;;;;40.10;5.78;;;5.10;99.90;;;;;;5083036;28;20025;-70
2021/04/07 08:02:52;;;;;;;51.60;6.32;;;5.20;99.90;;;;;;5079070;28;20032;-72
2021/04/07 08:05:19;;;;;;;30.67;6.00;;;5.30;99.90;;;;;;5074357;28;20021;-72
2021/04/07 08:07:45;;;;;;;59.38;7.28;;;5.30;99.90;;;;;;5074528;28;20079;-70
2021/04/07 08:10:11;;;;;;;46.30;6.25;;;5.30;99.90;;;;;;5072753;28;20491;-71
2021/04/07 08:12:39;;;;;;;40.80;5.90;;;5.40;99.90;;;;;;5070707;28;20025;-71
2021/04/07 08:15:05;;;;;;;40.30;5.57;;;5.40;99.90;;;;;;5071350;28;20020;-71
2021/04/07 08:17:32;;;;;;;34.40;4.88;;;5.50;99.90;;;;;;5069682;28;20020;-71
2021/04/07 08:20:00;;;;;;;39.85;6.45;;;5.50;99.90;;;;;;5070816;28;20096;-71
2021/04/07 08:22:28;;;;;;;41.53;5.75;;;5.50;99.90;;;;;;5068557;28;20560;-73
2021/04/07 08:24:56;;;;;;;38.25;5.55;;;5.60;99.90;;;;;;5070128;28;20043;-70
2021/04/07 08:27:22;;;;;;;29.23;4.95;;;5.70;99.90;;;;;;5069975;28;20055;-70
2021/04/07 08:29:48;;;;;;;40.50;5.30;;;5.70;99.90;;;;;;5073592;28;20678;-72
2021/04/07 08:32:24;;;;;;;41.10;5.28;;;5.80;99.90;;;;;;5071356;28;20047;-70
2021/04/07 08:34:50;;;;;;;43.30;5.82;;;5.90;99.90;;;;;;5068537;28;20134;-70
2021/04/07 08:37:27;;;;;;;33.13;4.93;;;5.90;99.90;;;;;;5064376;28;20013;-71
2021/04/07 08:39:54;;;;;;;37.78;5.72;;;6.00;99.90;;;;;;5066399;28;20332;-73
2021/04/07 08:42:20;;;;;;;36.75;5.57;;;6.00;99.90;;;;;;5063734;28;20027;-74
2021/04/07 08:44:47;;;;;;;32.60;5.25;;;6.10;99.90;;;;;;5076319;28;20046;-71
2021/04/07 08:47:31;;;;;;;40.70;4.72;;;6.10;99.90;;;;;;5079942;28;20033;-71
2021/04/07 08:50:03;;;;;;;47.17;5.68;;;6.10;99.90;;;;;;5078868;28;20044;-75
2021/04/07 08:52:29;;;;;;;39.60;5.13;;;6.10;99.90;;;;;;5072900;28;20044;-72
2021/04/07 08:54:58;;;;;;;50.13;6.05;;;6.00;99.90;;;;;;5069562;28;20078;-72
2021/04/07 08:57:35;;;;;;;35.92;5.25;;;6.10;99.90;;;;;;5072459;28;20048;-75
2021/04/07 09:00:08;;;;;;;34.15;4.20;;;6.10;99.90;;;;;;5075324;28;20089;-73
2021/04/07 09:02:48;;;;;;;47.10;5.13;;;6.10;99.90;;;;;;5077293;28;20017;-70
2021/04/07 09:05:16;;;;;;;31.00;5.20;;;6.20;99.90;;;;;;5078041;28;20059;-73
2021/04/07 09:07:46;;;;;;;43.50;5.45;;;6.20;99.90;;;;;;5080897;28;20020;-73
2021/04/07 09:10:18;;;;;;;31.85;5.47;;;6.20;99.90;;;;;;5079709;28;20499;-70
2021/04/07 09:12:47;;;;;;;33.75;4.88;;;6.20;99.90;;;;;;5066511;28;20021;-72
2021/04/07 09:15:17;;;;;;;31.00;4.50;;;6.20;99.90;;;;;;5080484;28;20023;-72
2021/04/07 09:17:51;;;;;;;43.95;6.47;;;6.10;99.90;;;;;;5077293;28;20024;-75
2021/04/07 09:20:36;;;;;;;24.83;4.20;;;6.20;99.90;;;;;;5071157;28;20027;-71
2021/04/07 09:23:17;;;;;;;28.73;4.65;;;6.10;99.90;;;;;;5068321;28;20019;-71
2021/04/07 09:25:53;;;;;;;30.15;5.15;;;6.20;99.90;;;;;;5056421;28;20025;-73
2021/04/07 09:28:31;;;;;;;31.58;4.78;;;5.80;99.90;;;;;;5062482;28;20616;-72
2021/04/07 09:31:05;;;;;;;34.38;5.13;;;5.80;99.90;;;;;;5076441;28;20021;-70
2021/04/07 09:33:31;;;;;;;25.60;4.43;;;6.00;99.90;;;;;;5076732;28;20025;-73
2021/04/07 09:36:00;;;;;;;27.73;4.00;;;6.10;99.90;;;;;;5073977;28;20472;-70
2021/04/07 09:38:28;;;;;;;32.90;4.88;;;6.20;99.90;;;;;;5064518;28;20051;-73
2021/04/07 09:41:25;;;;;;;33.78;4.40;;;6.10;99.90;;;;;;5075917;28;20484;-71
2021/04/07 09:43:51;;;;;;;28.17;4.97;;;6.10;99.90;;;;;;5057359;28;20115;-71
2021/04/07 09:46:16;;;;;;;28.00;4.20;;;6.20;99.90;;;;;;5076918;28;20059;-71
2021/04/07 09:48:46;;;;;;;26.92;4.32;;;6.20;99.90;;;;;;5061092;28;20217;-73
2021/04/07 09:51:30;;;;;;;26.50;4.45;;;6.40;99.90;;;;;;5077656;28;20488;-73
2021/04/07 09:54:14;;;;;;;32.25;4.38;;;6.40;99.90;;;;;;5075791;28;20420;-70
2021/04/07 09:56:50;;;;;;;21.75;3.47;;;6.50;99.90;;;;;;5077224;28;20484;-73
2021/04/07 09:59:17;;;;;;;16.60;2.78;;;6.60;99.90;;;;;;5064606;28;20021;-71
2021/04/07 10:01:43;;;;;;;19.77;2.63;;;6.60;99.90;;;;;;5075256;28;20026;-72
2021/04/07 10:04:09;;;;;;;21.25;2.72;;;6.60;99.90;;;;;;5074655;28;20248;-73
2021/04/07 10:06:35;;;;;;;19.95;3.85;;;6.60;99.90;;;;;;5075821;28;20075;-69
2021/04/07 10:09:05;;;;;;;23.95;2.92;;;6.50;99.90;;;;;;5074475;28;20048;-73
2021/04/07 10:11:32;;;;;;;27.73;4.15;;;6.60;99.90;;;;;;5077256;28;20443;-72
2021/04/07 10:13:59;;;;;;;19.88;3.17;;;6.70;99.90;;;;;;5073530;28;20024;-73
2021/04/07 10:16:31;;;;;;;22.33;3.60;;;6.60;99.90;;;;;;5075056;28;20020;-72
2021/04/07 10:18:59;;;;;;;30.70;4.15;;;5.90;99.90;;;;;;5074511;28;20043;-73
2021/04/07 10:21:26;;;;;;;34.20;4.18;;;5.60;99.90;;;;;;5075809;28;20724;-72
2021/04/07 10:23:55;;;;;;;39.92;4.97;;;5.40;99.90;;;;;;5075285;28;20082;-72
2021/04/07 10:26:20;;;;;;;32.97;4.50;;;5.30;99.90;;;;;;5073630;28;20549;-71
2021/04/07 10:29:01;;;;;;;38.92;4.80;;;5.10;99.90;;;;;;5074435;28;20086;-73
2021/04/07 10:31:28;;;;;;;24.30;4.80;;;5.20;99.90;;;;;;5073943;28;20039;-73
2021/04/07 10:34:08;;;;;;;28.48;4.47;;;5.30;99.90;;;;;;5075520;28;20492;-73
2021/04/07 10:36:36;;;;;;;36.80;5.50;;;5.60;99.90;;;;;;5060481;28;20024;-72
2021/04/07 10:39:16;;;;;;;29.67;4.20;;;5.70;99.90;;;;;;5074808;28;20326;-71
2021/04/07 10:41:47;;;;;;;26.65;3.45;;;5.80;99.90;;;;;;5073087;28;20025;-74
2021/04/07 10:44:28;;;;;;;28.30;4.25;;;6.10;99.90;;;;;;5074206;28;20030;-73
2021/04/07 10:46:54;;;;;;;28.40;2.78;;;6.00;99.90;;;;;;5073723;28;20093;-74
2021/04/07 10:49:22;;;;;;;13.25;3.10;;;4.80;99.90;;;;;;5073605;28;20032;-74
2021/04/07 10:52:08;;;;;;;15.55;2.95;;;4.50;99.90;;;;;;5072484;28;20036;-71
2021/04/07 10:54:34;;;;;;;24.80;3.40;;;4.70;99.90;;;;;;5074114;28;20105;-73
2021/04/07 10:57:03;;;;;;;22.27;3.13;;;4.90;99.90;;;;;;5068586;28;20107;-72
2021/04/07 10:59:33;;;;;;;18.00;3.05;;;5.00;99.90;;;;;;5063799;28;20031;-73
2021/04/07 11:02:15;;;;;;;20.58;3.05;;;5.40;99.90;;;;;;5074412;28;20021;-74
2021/04/07 11:04:41;;;;;;;24.25;2.75;;;5.40;99.90;;;;;;5076253;28;20585;-72
2021/04/07 11:07:12;;;;;;;25.38;2.85;;;5.40;99.90;;;;;;5079977;28;20113;-75
2021/04/07 11:09:48;;;;;;;20.35;2.63;;;5.70;99.90;;;;;;5068643;28;20059;-72
2021/04/07 11:12:16;;;;;;;14.23;2.42;;;5.70;99.90;;;;;;5072111;28;20028;-72
2021/04/07 11:14:50;;;;;;;19.45;3.35;;;5.80;99.90;;;;;;5075361;28;20052;-72
2021/04/07 11:17:17;;;;;;;15.23;2.97;;;5.90;99.90;;;;;;5065265;28;20017;-72
2021/04/07 11:19:43;;;;;;;16.42;3.05;;;6.00;99.90;;;;;;5070026;28;20025;-73
2021/04/07 11:22:09;;;;;;;24.92;3.80;;;6.10;99.90;;;;;;5074587;28;20052;-72
2021/04/07 11:24:37;;;;;;;24.13;3.30;;;6.40;99.90;;;;;;5075111;28;20047;-70
2021/04/07 11:27:03;;;;;;;13.40;2.80;;;6.50;99.90;;;;;;5061421;28;20547;-72
2021/04/07 11:29:30;;;;;;;18.23;2.72;;;6.60;99.90;;;;;;5075039;28;20041;-74
2021/04/07 11:31:58;;;;;;;15.27;2.70;;;6.60;99.90;;;;;;5073829;28;20089;-70
2021/04/07 11:34:32;;;;;;;16.67;2.67;;;6.30;99.90;;;;;;5073198;28;20389;-74
2021/04/07 11:37:10;;;;;;;18.33;2.20;;;6.00;99.90;;;;;;5072503;28;20032;-73
2021/04/07 11:40:11;;;;;;;16.05;2.95;;;5.90;99.90;;;;;;5072668;28;20150;-71
2021/04/07 11:45:03;;;;;;;11.98;1.38;;;5.90;99.90;;;;;;5070494;28;20017;-70
2021/04/07 11:47:29;;;;;;;11.82;1.60;;;6.00;99.90;;;;;;5075622;28;20025;-72
2021/04/07 11:49:54;;;;;;;11.38;2.08;;;6.00;99.90;;;;;;5078110;28;20030;-73
2021/04/07 11:52:20;;;;;;;13.85;2.35;;;5.80;99.90;;;;;;5070141;28;20032;-71
2021/04/07 11:54:46;;;;;;;19.13;3.90;;;5.70;99.90;;;;;;5066429;28;20032;-73
2021/04/07 11:57:11;;;;;;;31.80;4.38;;;5.80;99.90;;;;;;5072361;28;20492;-71
2021/04/07 11:59:37;;;;;;;22.73;2.53;;;5.80;99.90;;;;;;5071491;28;20034;-72
2021/04/07 12:02:03;;;;;;;22.42;2.95;;;5.90;99.90;;;;;;5071869;28;20017;-72
2021/04/07 12:04:31;;;;;;;21.27;3.00;;;6.10;99.90;;;;;;5070915;28;20067;-71
2021/04/07 12:06:58;;;;;;;21.55;2.95;;;6.40;99.90;;;;;;5072481;28;20408;-73
2021/04/07 12:09:24;;;;;;;22.75;3.17;;;7.00;99.90;;;;;;5072168;28;20124;-72
2021/04/07 12:11:50;;;;;;;14.40;3.70;;;7.80;99.90;;;;;;5072681;28;20024;-72
2021/04/07 12:14:16;;;;;;;15.20;2.90;;;7.80;99.90;;;;;;5071571;28;20032;-71
2021/04/07 12:16:42;;;;;;;18.02;3.78;;;7.40;99.90;;;;;;5055948;28;20474;-74
2021/04/07 12:19:09;;;;;;;23.88;2.97;;;7.00;99.90;;;;;;5071649;28;20020;-70
2021/04/07 12:21:35;;;;;;;16.77;2.72;;;6.70;99.90;;;;;;5066621;28;20048;-69
2021/04/07 12:24:02;;;;;;;18.55;3.13;;;7.00;99.90;;;;;;5062516;28;20020;-74
2021/04/07 12:26:28;;;;;;;22.15;2.95;;;7.20;99.90;;;;;;5072563;28;20028;-73
2021/04/07 12:28:56;;;;;;;13.10;2.63;;;6.90;99.90;;;;;;5073011;28;20140;-72
2021/04/07 12:31:22;;;;;;;18.52;2.45;;;7.20;99.90;;;;;;5072453;28;20343;-73
2021/04/07 12:33:54;;;;;;;24.20;2.65;;;7.20;99.90;;;;;;5073413;28;20093;-72
2021/04/07 12:36:22;;;;;;;20.15;2.72;;;7.30;99.90;;;;;;5074214;28;20456;-72
2021/04/07 12:38:48;;;;;;;25.98;2.65;;;7.00;99.90;;;;;;5074067;28;20021;-70
2021/04/07 12:44:05;;;;;;;18.17;2.67;;;7.20;99.90;;;;;;5068401;28;20048;-71
2021/04/07 12:46:32;;;;;;;18.85;2.25;;;6.80;99.90;;;;;;5077528;28;20036;-72
2021/04/07 12:48:57;;;;;;;15.00;2.78;;;6.90;99.90;;;;;;5072018;28;20710;-73
2021/04/07 12:51:23;;;;;;;17.73;3.10;;;6.80;99.90;;;;;;5072900;28;20028;-74
2021/04/07 12:53:51;;;;;;;22.70;2.75;;;6.80;99.90;;;;;;5070172;28;20571;-74
2021/04/07 12:56:20;;;;;;;17.13;2.15;;;6.80;99.90;;;;;;5080279;28;20028;-71
2021/04/07 12:58:50;;;;;;;13.70;2.38;;;6.90;99.90;;;;;;5080579;28;20021;-72